createdAt,value
2022-10-03T00:02:18.396Z,2.97
2022-10-03T00:05:03.589Z,2.78
2022-10-03T00:08:09.022Z,2.50
2022-10-03T00:10:38.715Z,2.97
2022-10-03T00:13:51.866Z,2.28
2022-10-03T00:16:41.471Z,2.70
2022-10-03T00:19:42.970Z,2.83
2022-10-03T00:22:21.210Z,2.80
2022-10-03T00:25:29.548Z,2.53
2022-10-03T00:28:13.607Z,2.15
2022-10-03T00:31:01.329Z,3.50
2022-10-03T00:33:51.100Z,2.30
2022-10-03T00:36:55.504Z,2.25
2022-10-03T00:39:27.809Z,2.33
2022-10-03T00:42:06.613Z,2.90
2022-10-03T00:44:43.652Z,2.28
2022-10-03T00:47:22.218Z,2.40
2022-10-03T00:50:01.151Z,2.88
2022-10-03T00:52:40.026Z,2.45
2022-10-03T00:55:27.971Z,2.92
2022-10-03T00:58:16.470Z,2.13
2022-10-03T01:00:50.882Z,2.33
2022-10-03T01:03:28.446Z,2.60
2022-10-03T01:06:46.530Z,1.95
2022-10-03T01:09:27.417Z,2.20
2022-10-03T01:12:21.755Z,2.03
2022-10-03T01:14:57.284Z,2.10
2022-10-03T01:17:56.200Z,2.60
2022-10-03T01:20:47.418Z,2.80
2022-10-03T01:23:13.870Z,2.25
2022-10-03T01:26:37.155Z,2.08
2022-10-03T01:29:28.487Z,2.17
2022-10-03T01:32:05.391Z,2.70
2022-10-03T01:34:38.238Z,2.55
2022-10-03T01:37:22.625Z,2.53
2022-10-03T01:40:26.342Z,2.38
2022-10-03T01:43:14.801Z,1.92
2022-10-03T01:46:09.082Z,2.28
2022-10-03T01:49:00.427Z,2.53
2022-10-03T01:51:27.579Z,2.75
2022-10-03T01:54:20.064Z,2.80
2022-10-03T01:57:12.365Z,2.40
2022-10-03T01:59:45.613Z,2.20
2022-10-03T02:02:49.069Z,2.10
2022-10-03T02:05:25.837Z,3.13
2022-10-03T02:08:01.049Z,2.85
2022-10-03T02:11:02.735Z,2.88
2022-10-03T02:13:44.134Z,2.50
2022-10-03T02:16:15.913Z,2.92
2022-10-03T02:18:55.568Z,2.15
2022-10-03T02:21:27.033Z,2.47
2022-10-03T02:24:18.929Z,2.78
2022-10-03T02:26:48.107Z,2.97
2022-10-03T02:29:39.369Z,2.67
2022-10-03T02:32:24.222Z,3.15
2022-10-03T02:35:15.000Z,3.38
2022-10-03T02:37:48.458Z,4.22
2022-10-03T02:40:29.241Z,4.30
2022-10-03T02:43:52.854Z,4.45
2022-10-03T02:47:17.855Z,4.13
2022-10-03T02:50:02.879Z,3.78
2022-10-03T02:53:07.687Z,3.95
2022-10-03T02:56:11.814Z,4.57
2022-10-03T02:59:15.487Z,4.03
2022-10-03T03:01:52.423Z,3.90
2022-10-03T03:04:56.728Z,4.05
2022-10-03T03:07:38.383Z,4.30
2022-10-03T03:10:20.169Z,5.07
2022-10-03T03:13:08.199Z,5.55
2022-10-03T03:15:59.924Z,4.68
2022-10-03T03:18:34.539Z,4.60
2022-10-03T03:21:23.804Z,4.68
2022-10-03T03:24:05.851Z,4.38
2022-10-03T03:26:53.285Z,3.78
2022-10-03T03:29:44.432Z,4.00
2022-10-03T03:32:52.363Z,4.13
2022-10-03T03:35:46.717Z,4.07
2022-10-03T03:38:35.085Z,4.72
2022-10-03T03:41:21.194Z,3.88
2022-10-03T03:44:25.507Z,4.13
2022-10-03T03:47:30.290Z,3.58
2022-10-03T03:50:07.952Z,3.28
2022-10-03T03:52:49.627Z,3.30
2022-10-03T03:55:34.732Z,3.55
2022-10-03T03:58:40.236Z,3.30
2022-10-03T04:01:39.183Z,3.42
2022-10-03T04:04:44.195Z,3.38
2022-10-03T04:07:32.350Z,3.53
2022-10-03T04:10:32.992Z,3.00
2022-10-03T04:13:21.149Z,2.55
2022-10-03T04:16:13.938Z,3.20
2022-10-03T04:18:58.423Z,2.97
2022-10-03T04:21:28.331Z,3.15
2022-10-03T04:24:21.978Z,4.18
2022-10-03T04:27:25.678Z,4.00
2022-10-03T04:30:23.424Z,3.92
2022-10-03T04:33:02.089Z,4.25
2022-10-03T04:36:06.341Z,3.88
2022-10-03T04:39:00.977Z,5.25
2022-10-03T04:41:46.074Z,5.43
2022-10-03T04:44:39.320Z,4.82
2022-10-03T04:47:26.273Z,5.40
2022-10-03T04:49:56.202Z,5.55
2022-10-03T04:52:39.478Z,4.25
2022-10-03T04:57:54.768Z,3.70
2022-10-03T05:00:41.597Z,4.50
2022-10-03T05:03:26.937Z,4.07
2022-10-03T05:06:18.152Z,3.90
2022-10-03T05:08:50.222Z,3.65
2022-10-03T05:11:45.489Z,3.45
2022-10-03T05:14:56.330Z,3.70
2022-10-03T05:17:37.366Z,3.75
2022-10-03T05:20:34.456Z,3.35
2022-10-03T05:23:25.036Z,3.58
2022-10-03T05:26:30.878Z,3.28
2022-10-03T05:29:03.752Z,2.75
2022-10-03T05:31:30.271Z,3.70
2022-10-03T05:34:04.327Z,3.45
2022-10-03T05:36:51.084Z,3.63
2022-10-03T05:39:23.572Z,3.60
2022-10-03T05:42:21.518Z,2.90
2022-10-03T05:45:07.078Z,3.30
2022-10-03T05:47:55.490Z,5.25
2022-10-03T05:50:43.646Z,5.38
2022-10-03T05:53:31.713Z,5.85
2022-10-03T05:56:22.883Z,5.43
2022-10-03T05:59:07.807Z,5.90
2022-10-03T06:01:46.135Z,5.90
2022-10-03T06:04:21.901Z,5.10
2022-10-03T06:06:53.325Z,5.25
2022-10-03T06:09:44.852Z,5.85
2022-10-03T06:12:25.385Z,6.03
2022-10-03T06:15:10.576Z,5.25
2022-10-03T06:18:02.025Z,5.65
2022-10-03T06:21:05.315Z,6.97
2022-10-03T06:23:31.828Z,6.38
2022-10-03T06:26:15.025Z,7.70
2022-10-03T06:29:22.248Z,6.53
2022-10-03T06:32:13.007Z,5.95
2022-10-03T06:35:17.353Z,6.25
2022-10-03T06:38:26.205Z,7.15
2022-10-03T06:41:04.344Z,6.90
2022-10-03T06:44:01.382Z,7.50
2022-10-03T06:46:46.354Z,6.18
2022-10-03T06:49:29.236Z,7.10
2022-10-03T06:52:04.962Z,6.78
2022-10-03T06:55:24.524Z,7.05
2022-10-03T06:58:28.489Z,5.80
2022-10-03T07:01:12.982Z,6.38
2022-10-03T07:04:30.685Z,6.72
2022-10-03T07:07:32.826Z,6.90
2022-10-03T07:10:29.590Z,6.50
2022-10-03T07:13:24.260Z,7.50
2022-10-03T07:16:27.480Z,7.78
2022-10-03T07:19:22.881Z,6.63
2022-10-03T07:22:01.622Z,6.90
2022-10-03T07:24:41.526Z,6.65
2022-10-03T07:27:27.732Z,6.82
2022-10-03T07:30:12.180Z,6.13
2022-10-03T07:33:06.562Z,6.30
2022-10-03T07:36:03.874Z,6.38
2022-10-03T07:38:58.233Z,5.35
2022-10-03T07:41:34.061Z,4.55
2022-10-03T07:44:06.348Z,4.70
2022-10-03T07:46:42.115Z,4.25
2022-10-03T07:49:27.384Z,3.83
2022-10-03T07:52:26.960Z,3.50
2022-10-03T07:55:43.888Z,3.70
2022-10-03T07:58:37.967Z,3.00
2022-10-03T08:01:35.702Z,3.30
2022-10-03T08:04:26.113Z,2.97
2022-10-03T08:07:14.612Z,2.97
2022-10-03T08:10:17.196Z,3.75
2022-10-03T08:13:24.773Z,3.55
2022-10-03T08:16:06.126Z,3.30
2022-10-03T08:19:00.819Z,3.13
2022-10-03T08:21:50.276Z,3.28
2022-10-03T08:24:54.254Z,2.75
2022-10-03T08:27:43.347Z,2.95
2022-10-03T08:30:15.206Z,2.92
2022-10-03T08:32:57.816Z,2.42
2022-10-03T08:35:49.126Z,3.20
2022-10-03T08:38:33.986Z,2.72
2022-10-03T08:41:18.128Z,2.40
2022-10-03T08:43:53.757Z,2.42
2022-10-03T08:46:42.230Z,2.80
2022-10-03T08:49:44.839Z,2.22
2022-10-03T08:52:23.307Z,2.53
2022-10-03T08:55:02.420Z,2.65
2022-10-03T08:58:00.277Z,2.20
2022-10-03T09:00:56.133Z,1.83
2022-10-03T09:03:42.794Z,2.00
2022-10-03T09:06:24.814Z,1.95
2022-10-03T09:09:05.880Z,2.28
2022-10-03T09:11:32.394Z,2.40
2022-10-03T09:14:05.107Z,2.00
2022-10-03T09:16:44.559Z,1.77
2022-10-03T09:19:27.190Z,2.13
2022-10-03T09:22:03.162Z,2.28
2022-10-03T09:25:03.967Z,1.98
2022-10-03T09:27:50.367Z,2.10
2022-10-03T09:30:30.992Z,2.15
2022-10-03T09:33:22.330Z,1.92
2022-10-03T09:36:04.522Z,1.77
2022-10-03T09:39:30.029Z,1.63
2022-10-03T09:42:27.503Z,1.80
2022-10-03T09:45:16.180Z,1.83
2022-10-03T09:48:04.997Z,1.70
2022-10-03T09:51:02.216Z,1.25
2022-10-03T09:53:59.750Z,2.05
2022-10-03T09:56:26.275Z,1.95
2022-10-03T09:59:12.116Z,1.42
2022-10-03T10:01:41.796Z,1.88
2022-10-03T10:04:54.315Z,1.77
2022-10-03T10:07:38.005Z,1.13
2022-10-03T10:10:42.023Z,1.55
2022-10-03T10:13:26.770Z,1.52
2022-10-03T10:16:15.296Z,1.38
2022-10-03T10:19:03.531Z,1.10
2022-10-03T10:21:30.079Z,1.67
2022-10-03T10:24:14.783Z,1.45
2022-10-03T10:27:35.666Z,1.63
2022-10-03T10:30:22.281Z,1.75
2022-10-03T10:33:03.711Z,1.20
2022-10-03T10:36:06.921Z,1.35
2022-10-03T10:39:07.120Z,1.42
2022-10-03T10:41:55.306Z,1.40
2022-10-03T10:45:06.343Z,1.55
2022-10-03T10:47:51.567Z,1.38
2022-10-03T10:50:36.709Z,1.15
2022-10-03T10:53:09.454Z,1.27
2022-10-03T10:55:54.422Z,1.50
2022-10-03T10:58:58.156Z,1.17
2022-10-03T11:03:57.534Z,0.95
2022-10-03T11:07:16.533Z,1.48
2022-10-03T11:10:02.717Z,1.67
2022-10-03T11:12:41.129Z,1.40
2022-10-03T11:15:26.530Z,1.60
2022-10-03T11:18:08.456Z,1.25
2022-10-03T11:20:44.119Z,1.20
2022-10-03T11:23:16.402Z,1.27
2022-10-03T11:26:37.122Z,1.50
2022-10-03T11:29:06.621Z,0.90
2022-10-03T11:31:59.026Z,1.15
2022-10-03T11:34:43.101Z,1.58
2022-10-03T11:37:27.531Z,1.55
2022-10-03T11:40:21.836Z,1.17
2022-10-03T11:43:00.143Z,1.13
2022-10-03T11:45:33.317Z,1.17
2022-10-03T11:48:10.002Z,1.83
2022-10-03T11:51:01.466Z,1.60
2022-10-03T11:53:47.984Z,1.35
2022-10-03T11:56:44.895Z,1.40
2022-10-03T11:59:34.234Z,1.20
2022-10-03T12:02:10.181Z,1.58
2022-10-03T12:04:45.627Z,1.00
2022-10-03T12:07:43.217Z,1.00
2022-10-03T12:10:30.210Z,0.90
2022-10-03T12:12:57.992Z,0.95
2022-10-03T12:15:51.008Z,1.35
2022-10-03T12:18:45.528Z,1.02
2022-10-03T12:21:21.086Z,1.73
2022-10-03T12:24:20.939Z,1.02
2022-10-03T12:27:05.877Z,1.02
2022-10-03T12:29:36.299Z,0.80
2022-10-03T12:32:16.002Z,0.90
2022-10-03T12:35:00.117Z,1.45
2022-10-03T12:37:38.844Z,1.27
2022-10-03T12:40:12.377Z,1.00
2022-10-03T12:42:53.403Z,0.95
2022-10-03T12:45:27.574Z,1.23
2022-10-03T12:48:16.422Z,1.10
2022-10-03T12:50:59.603Z,1.08
2022-10-03T12:53:41.721Z,1.17
2022-10-03T12:56:25.087Z,1.17
2022-10-03T12:59:04.035Z,1.30
2022-10-03T13:02:03.068Z,1.13
2022-10-03T13:05:00.815Z,1.10
2022-10-03T13:08:02.411Z,1.08
2022-10-03T13:11:17.248Z,1.10
2022-10-03T13:14:19.138Z,1.08
2022-10-03T13:17:14.745Z,1.23
2022-10-03T13:20:06.570Z,1.08
2022-10-03T13:22:57.967Z,1.25
2022-10-03T13:25:36.203Z,1.02
2022-10-03T13:28:18.828Z,0.70
2022-10-03T13:31:00.135Z,1.02
2022-10-03T13:33:32.349Z,0.90
2022-10-03T13:36:26.796Z,0.73
2022-10-03T13:38:55.144Z,1.10
2022-10-03T13:41:46.751Z,0.90
2022-10-03T13:44:36.335Z,1.17
2022-10-03T13:47:27.255Z,1.45
2022-10-03T13:49:58.815Z,0.93
2022-10-03T13:52:43.387Z,1.30
2022-10-03T13:55:13.230Z,1.10
2022-10-03T13:57:47.614Z,0.77
2022-10-03T14:00:21.176Z,0.98
2022-10-03T14:03:17.181Z,1.10
2022-10-03T14:06:11.669Z,0.80
2022-10-03T14:09:10.222Z,1.10
2022-10-03T14:11:47.793Z,0.98
2022-10-03T14:14:25.369Z,1.05
2022-10-03T14:17:00.801Z,0.88
2022-10-03T14:19:53.389Z,1.10
2022-10-03T14:22:36.119Z,1.30
2022-10-03T14:25:27.760Z,1.20
2022-10-03T14:28:08.134Z,1.13
2022-10-03T14:31:07.284Z,1.05
2022-10-03T14:34:15.941Z,0.73
2022-10-03T14:37:03.980Z,1.10
2022-10-03T14:40:13.585Z,1.40
2022-10-03T14:42:58.988Z,0.93
2022-10-03T14:45:39.050Z,0.98
2022-10-03T14:48:17.795Z,1.08
2022-10-03T14:50:48.887Z,1.05
2022-10-03T14:53:25.126Z,1.35
2022-10-03T14:55:51.600Z,1.20
2022-10-03T14:58:21.821Z,1.25
2022-10-03T15:01:28.798Z,1.00
2022-10-03T15:04:04.347Z,1.10
2022-10-03T15:06:33.000Z,1.20
2022-10-03T15:09:02.619Z,0.93
2022-10-03T15:11:47.791Z,1.58
2022-10-03T15:14:14.777Z,1.13
2022-10-03T15:16:48.835Z,1.00
2022-10-03T15:19:20.194Z,0.88
2022-10-03T15:21:50.940Z,0.98
2022-10-03T15:24:25.142Z,1.10
2022-10-03T15:26:59.987Z,0.95
2022-10-03T15:29:28.272Z,1.00
2022-10-03T15:31:58.064Z,1.30
2022-10-03T15:34:32.258Z,1.00
2022-10-03T15:37:10.901Z,0.93
2022-10-03T15:39:44.011Z,0.90
2022-10-03T15:42:10.497Z,0.88
2022-10-03T15:44:40.054Z,1.20
2022-10-03T15:47:13.777Z,1.33
2022-10-03T15:49:50.257Z,1.02
2022-10-03T15:52:19.849Z,1.23
2022-10-03T15:54:54.705Z,1.00
2022-10-03T16:00:03.317Z,0.80
2022-10-03T16:02:30.313Z,0.98
2022-10-03T16:04:58.141Z,1.42
2022-10-03T16:07:36.988Z,1.15
2022-10-03T16:10:21.012Z,1.25
2022-10-03T16:13:03.580Z,0.77
2022-10-03T16:15:49.589Z,1.00
2022-10-03T16:18:19.207Z,1.05
2022-10-03T16:21:06.124Z,0.90
2022-10-03T16:23:37.950Z,1.23
2022-10-03T16:26:08.335Z,1.00
2022-10-03T16:28:44.375Z,1.00
2022-10-03T16:31:32.856Z,1.08
2022-10-03T16:34:03.930Z,0.90
2022-10-03T16:36:40.322Z,0.90
2022-10-03T16:39:23.855Z,1.10
2022-10-03T16:41:55.943Z,1.10
2022-10-03T16:44:34.309Z,1.60
2022-10-03T16:47:03.569Z,1.10
2022-10-03T16:49:48.789Z,1.13
2022-10-03T16:52:38.228Z,1.00
2022-10-03T16:55:12.940Z,1.10
2022-10-03T16:57:46.195Z,1.10
2022-10-03T17:00:25.552Z,1.45
2022-10-03T17:02:54.199Z,1.02
2022-10-03T17:05:21.245Z,1.27
2022-10-03T17:08:23.628Z,1.83
2022-10-03T17:10:55.916Z,1.40
2022-10-03T17:13:28.591Z,1.30
2022-10-03T17:16:09.147Z,1.75
2022-10-03T17:18:44.663Z,1.50
2022-10-03T17:21:31.267Z,1.48
2022-10-03T17:24:03.682Z,1.50
2022-10-03T17:26:36.030Z,1.27
2022-10-03T17:29:18.145Z,1.55
2022-10-03T17:31:47.841Z,1.50
2022-10-03T17:34:22.633Z,1.80
2022-10-03T17:37:13.572Z,1.60
2022-10-03T17:39:50.481Z,1.23
2022-10-03T17:42:37.964Z,1.65
2022-10-03T17:45:30.686Z,2.00
2022-10-03T17:48:06.883Z,1.40
2022-10-03T17:50:51.517Z,1.30
2022-10-03T17:53:38.518Z,1.58
2022-10-03T17:56:20.510Z,1.40
2022-10-03T17:59:03.094Z,1.58
2022-10-03T18:01:36.794Z,1.67
2022-10-03T18:04:10.770Z,1.83
2022-10-03T18:07:13.637Z,1.80
2022-10-03T18:09:47.617Z,1.93
2022-10-03T18:12:32.180Z,1.55
2022-10-03T18:15:16.372Z,1.33
2022-10-03T18:18:09.138Z,1.70
2022-10-03T18:20:58.531Z,1.50
2022-10-03T18:24:00.324Z,1.25
2022-10-03T18:26:40.519Z,1.63
2022-10-03T18:29:19.101Z,1.58
2022-10-03T18:31:55.563Z,1.70
2022-10-03T18:34:46.041Z,1.30
2022-10-03T18:37:30.856Z,2.08
2022-10-03T18:39:59.409Z,2.00
2022-10-03T18:42:28.364Z,1.67
2022-10-03T18:44:57.440Z,1.45
2022-10-03T18:47:44.019Z,1.90
2022-10-03T18:50:26.638Z,1.67
2022-10-03T18:52:59.347Z,1.60
2022-10-03T18:55:37.782Z,1.40
2022-10-03T18:58:19.154Z,1.98
2022-10-03T19:00:55.906Z,2.00
2022-10-03T19:03:34.291Z,1.48
2022-10-03T19:06:08.196Z,1.60
2022-10-03T19:08:42.313Z,2.13
2022-10-03T19:11:17.791Z,1.60
2022-10-03T19:13:56.332Z,1.60
2022-10-03T19:16:35.101Z,1.50
2022-10-03T19:19:33.981Z,1.80
2022-10-03T19:22:06.536Z,1.50
2022-10-03T19:24:57.199Z,1.48
2022-10-03T19:27:38.336Z,1.50
2022-10-03T19:30:06.765Z,1.10
2022-10-03T19:32:53.595Z,1.45
2022-10-03T19:35:23.297Z,1.55
2022-10-03T19:37:51.950Z,1.85
2022-10-03T19:40:30.743Z,1.60
2022-10-03T19:43:17.507Z,1.38
2022-10-03T19:46:02.308Z,1.88
2022-10-03T19:48:32.288Z,1.77
2022-10-03T19:51:09.877Z,1.75
2022-10-03T19:53:42.585Z,1.90
2022-10-03T19:56:15.689Z,2.35
2022-10-03T19:58:46.096Z,2.13
2022-10-03T20:01:13.376Z,2.22
2022-10-03T20:03:52.212Z,1.98
2022-10-03T20:06:23.769Z,2.10
2022-10-03T20:09:07.551Z,2.00
2022-10-03T20:11:47.799Z,1.98
2022-10-03T20:14:19.770Z,1.67
2022-10-03T20:16:48.977Z,2.28
2022-10-03T20:19:22.295Z,2.03
2022-10-03T20:21:57.542Z,1.88
2022-10-03T20:24:33.955Z,1.80
2022-10-03T20:27:12.483Z,1.85
2022-10-03T20:30:17.516Z,1.48
2022-10-03T20:32:46.351Z,2.13
2022-10-03T20:35:42.163Z,2.20
2022-10-03T20:38:27.102Z,1.80
2022-10-03T20:41:01.285Z,1.70
2022-10-03T20:43:41.617Z,2.00
2022-10-03T20:46:15.891Z,2.03
2022-10-03T20:49:15.810Z,2.03
2022-10-03T20:51:56.429Z,1.73
2022-10-03T20:54:48.852Z,2.08
2022-10-03T20:57:20.043Z,1.83
2022-10-03T20:59:49.813Z,1.92
2022-10-03T21:02:36.978Z,2.13
2022-10-03T21:05:18.129Z,1.80
2022-10-03T21:07:52.266Z,1.75
2022-10-03T21:10:24.813Z,2.10
2022-10-03T21:13:01.711Z,2.13
2022-10-03T21:15:51.101Z,2.28
2022-10-03T21:18:22.778Z,2.10
2022-10-03T21:21:03.471Z,1.80
2022-10-03T21:23:35.289Z,2.90
2022-10-03T21:26:02.502Z,2.40
2022-10-03T21:28:34.627Z,2.20
2022-10-03T21:31:23.855Z,1.90
2022-10-03T21:34:15.856Z,2.47
2022-10-03T21:36:57.894Z,2.67
2022-10-03T21:39:37.585Z,2.72
2022-10-03T21:42:28.439Z,2.47
2022-10-03T21:45:13.837Z,2.47
2022-10-03T21:47:52.965Z,2.25
2022-10-03T21:50:23.992Z,2.00
2022-10-03T21:52:55.820Z,2.03
2022-10-03T21:55:53.369Z,2.08
2022-10-03T21:58:49.895Z,2.53
2022-10-03T22:01:29.539Z,2.53
2022-10-03T22:04:15.696Z,2.20
2022-10-03T22:07:02.744Z,2.78
2022-10-03T22:09:29.453Z,2.50
2022-10-03T22:12:01.344Z,2.55
2022-10-03T22:15:03.407Z,2.65
2022-10-03T22:17:35.273Z,3.08
2022-10-03T22:20:29.917Z,2.65
2022-10-03T22:23:02.733Z,2.45
2022-10-03T22:25:39.149Z,2.50
2022-10-03T22:28:33.821Z,2.60
2022-10-03T22:31:25.227Z,2.28
2022-10-03T22:34:22.901Z,2.05
2022-10-03T22:36:50.314Z,1.90
2022-10-03T22:39:18.842Z,2.55
2022-10-03T22:41:50.490Z,2.70
2022-10-03T22:44:19.927Z,2.22
2022-10-03T22:46:52.052Z,1.92
2022-10-03T22:49:28.799Z,2.50
2022-10-03T22:51:57.798Z,2.28
2022-10-03T22:54:33.573Z,2.97
2022-10-03T22:57:06.319Z,2.47
2022-10-03T22:59:38.559Z,2.45
2022-10-03T23:02:08.375Z,2.42
2022-10-03T23:04:39.738Z,2.35
2022-10-03T23:07:32.435Z,2.70
2022-10-03T23:10:10.916Z,2.30
2022-10-03T23:12:44.300Z,2.17
2022-10-03T23:15:16.665Z,2.00
2022-10-03T23:18:01.503Z,2.47
2022-10-03T23:20:34.096Z,2.40
2022-10-03T23:23:11.900Z,2.33
2022-10-03T23:26:23.984Z,2.65
2022-10-03T23:29:11.065Z,2.63
2022-10-03T23:31:50.004Z,2.92
2022-10-03T23:34:37.801Z,3.00
2022-10-03T23:37:23.665Z,2.83
2022-10-03T23:39:56.196Z,3.38
2022-10-03T23:42:31.659Z,3.63
2022-10-03T23:45:12.166Z,3.33
2022-10-03T23:47:47.112Z,3.03
2022-10-03T23:50:24.899Z,2.83
2022-10-03T23:52:58.349Z,3.03
2022-10-03T23:55:28.985Z,3.17
2022-10-03T23:57:56.234Z,2.55
